Time;durP1;ratioP1;P1;durP2;ratioP2;P2;SDS_P1;SDS_P2;PMS_P1;PMS_P2;Temp;Humidity;BMP_temperature;BMP_pressure;BME280_temperature;BME280_humidity;BME280_pressure;Samples;Min_cycle;Max_cycle;Signal;HPM_P1;HPM_P2
2021/07/09 00:01:13;;;;;;;15.90;13.45;;;25.10;96.20;;;;;;5078402;28;20142;-86
2021/07/09 00:03:41;;;;;;;17.27;14.55;;;25.10;96.20;;;;;;5075565;28;20529;-87
2021/07/09 00:06:06;;;;;;;15.98;13.50;;;25.10;96.20;;;;;;5058474;28;20050;-86
2021/07/09 00:08:32;;;;;;;17.30;14.63;;;25.20;96.30;;;;;;5092425;28;20056;-86
2021/07/09 00:10:58;;;;;;;15.05;13.05;;;25.10;96.20;;;;;;5074895;28;20089;-86
2021/07/09 00:13:24;;;;;;;15.75;14.02;;;25.20;96.30;;;;;;5074986;28;20373;-86
2021/07/09 00:15:50;;;;;;;16.80;14.32;;;25.10;96.20;;;;;;5092333;28;20032;-86
2021/07/09 00:18:15;;;;;;;15.02;13.45;;;25.20;96.30;;;;;;5093085;28;20443;-86
2021/07/09 00:20:41;;;;;;;15.73;14.05;;;25.20;96.30;;;;;;5092825;28;20024;-86
2021/07/09 00:23:07;;;;;;;17.83;15.15;;;25.10;96.20;;;;;;5058873;28;20024;-85
2021/07/09 00:25:33;;;;;;;16.50;14.65;;;25.10;96.30;;;;;;5093276;28;20492;-88
2021/07/09 00:27:58;;;;;;;17.02;14.80;;;25.10;96.30;;;;;;5093124;28;20111;-86
2021/07/09 00:30:24;;;;;;;17.40;15.25;;;25.20;96.30;;;;;;5094884;28;20028;-86
2021/07/09 00:32:49;;;;;;;18.35;15.73;;;25.20;96.50;;;;;;5077968;28;20040;-86
2021/07/09 00:35:15;;;;;;;18.90;16.35;;;25.20;96.30;;;;;;5078054;28;20075;-86
2021/07/09 00:37:41;;;;;;;18.80;16.05;;;25.10;96.30;;;;;;5077851;28;20123;-86
2021/07/09 00:40:08;;;;;;;16.92;15.10;;;25.10;96.20;;;;;;5096243;28;20028;-86
2021/07/09 00:42:34;;;;;;;18.42;16.42;;;25.10;96.20;;;;;;5077926;28;20519;-85
2021/07/09 00:45:02;;;;;;;18.55;16.52;;;25.10;96.20;;;;;;5077988;28;20055;-86
2021/07/09 00:47:28;;;;;;;19.77;17.08;;;25.20;96.30;;;;;;5078001;28;20542;-85
2021/07/09 00:49:53;;;;;;;19.20;16.63;;;25.10;96.20;;;;;;5061160;28;20107;-85
2021/07/09 00:52:19;;;;;;;18.55;16.10;;;25.10;96.20;;;;;;5044532;28;20039;-86
2021/07/09 00:54:44;;;;;;;19.90;17.15;;;25.10;96.20;;;;;;5077339;28;20024;-86
2021/07/09 00:57:11;;;;;;;20.13;16.95;;;25.10;96.20;;;;;;5060640;28;20032;-86
2021/07/09 00:59:37;;;;;;;19.98;17.33;;;25.20;96.30;;;;;;5060893;28;20028;-88
2021/07/09 01:02:03;;;;;;;21.48;17.88;;;25.10;96.20;;;;;;5077421;28;20028;-86
2021/07/09 01:04:29;;;;;;;19.02;16.80;;;25.10;96.20;;;;;;5084324;28;20459;-85
2021/07/09 01:06:55;;;;;;;21.52;18.58;;;25.10;96.20;;;;;;5076114;28;20083;-85
2021/07/09 01:09:20;;;;;;;19.05;16.77;;;25.10;96.30;;;;;;5095089;28;20055;-85
2021/07/09 01:11:50;;;;;;;20.48;17.70;;;25.10;96.30;;;;;;5095630;28;20485;-85
2021/07/09 01:14:20;;;;;;;19.98;17.73;;;25.10;96.30;;;;;;5095537;28;20162;-86
2021/07/09 01:16:47;;;;;;;19.35;17.20;;;25.10;96.30;;;;;;5094928;28;20028;-85
2021/07/09 01:19:17;;;;;;;21.90;18.88;;;25.10;96.30;;;;;;5077411;28;20028;-86
2021/07/09 01:21:44;;;;;;;20.75;17.77;;;25.10;96.30;;;;;;5071035;28;20037;-86
2021/07/09 01:24:11;;;;;;;21.08;17.92;;;25.10;96.30;;;;;;5040484;28;20036;-86
2021/07/09 01:26:37;;;;;;;22.67;19.02;;;25.10;96.30;;;;;;5057011;28;20032;-86
2021/07/09 01:29:05;;;;;;;20.73;18.02;;;25.10;96.40;;;;;;5040127;28;20040;-85
2021/07/09 01:31:31;;;;;;;24.27;19.45;;;25.10;96.40;;;;;;5057049;28;20041;-85
2021/07/09 01:33:57;;;;;;;22.27;18.40;;;25.10;96.40;;;;;;5074298;28;20056;-85
2021/07/09 01:36:23;;;;;;;21.55;18.65;;;25.10;96.40;;;;;;5057348;28;20072;-85
2021/07/09 01:38:49;;;;;;;21.75;18.58;;;25.10;96.40;;;;;;5056818;28;20036;-86
2021/07/09 01:41:16;;;;;;;23.70;19.42;;;25.10;96.40;;;;;;5074382;28;20020;-85
2021/07/09 01:43:42;;;;;;;24.48;20.00;;;25.10;96.40;;;;;;5074762;28;20055;-86
2021/07/09 01:46:08;;;;;;;22.35;18.77;;;25.10;96.40;;;;;;5056971;28;20127;-85
2021/07/09 01:48:34;;;;;;;23.15;19.75;;;25.10;96.40;;;;;;5056645;28;20115;-85
2021/07/09 01:50:59;;;;;;;22.92;19.67;;;25.10;96.40;;;;;;5056328;28;20055;-86
2021/07/09 01:53:25;;;;;;;21.55;19.25;;;25.10;96.40;;;;;;5056471;28;20032;-86
2021/07/09 01:55:51;;;;;;;20.67;18.40;;;25.10;96.40;;;;;;5039373;28;20033;-86
2021/07/09 01:58:16;;;;;;;24.02;20.83;;;25.10;96.50;;;;;;5056620;28;20020;-85
2021/07/09 02:00:42;;;;;;;21.83;19.13;;;25.10;96.50;;;;;;5056873;28;20067;-86
2021/07/09 02:03:08;;;;;;;22.38;19.02;;;25.10;96.70;;;;;;5040064;28;20032;-86
2021/07/09 02:05:34;;;;;;;22.58;19.65;;;25.10;96.50;;;;;;5040752;28;20043;-86
2021/07/09 02:08:00;;;;;;;23.40;20.17;;;25.10;96.50;;;;;;5056487;28;20029;-86
2021/07/09 02:10:30;;;;;;;22.35;19.88;;;25.10;96.50;;;;;;5056539;28;20057;-85
2021/07/09 02:12:56;;;;;;;22.98;19.48;;;25.10;96.50;;;;;;5074713;28;20052;-86
2021/07/09 02:15:26;;;;;;;22.90;19.45;;;25.10;96.50;;;;;;5057052;28;20027;-85
2021/07/09 02:17:52;;;;;;;23.50;19.83;;;25.10;96.50;;;;;;5074140;28;20064;-86
2021/07/09 02:20:20;;;;;;;21.95;19.38;;;25.00;96.50;;;;;;5056313;28;20064;-85
2021/07/09 02:22:47;;;;;;;23.17;19.85;;;25.10;96.50;;;;;;5073385;28;20039;-85
2021/07/09 02:25:14;;;;;;;24.33;20.15;;;25.00;96.50;;;;;;5073561;28;20033;-86
2021/07/09 02:27:41;;;;;;;20.80;18.15;;;25.00;96.50;;;;;;5073779;28;20041;-86
2021/07/09 02:30:10;;;;;;;22.23;19.65;;;25.10;96.60;;;;;;5055375;28;20036;-85
2021/07/09 02:32:36;;;;;;;22.02;19.02;;;25.10;96.60;;;;;;5055361;28;20021;-85
2021/07/09 02:35:04;;;;;;;23.65;19.95;;;25.00;96.50;;;;;;5055452;28;20478;-86
2021/07/09 02:37:29;;;;;;;21.90;19.08;;;25.00;96.50;;;;;;5039274;28;20471;-85
2021/07/09 02:39:55;;;;;;;22.63;19.45;;;25.10;96.60;;;;;;5038828;28;20035;-86
2021/07/09 02:42:21;;;;;;;22.63;19.38;;;25.00;96.50;;;;;;5073530;28;20040;-86
2021/07/09 02:44:46;;;;;;;22.83;19.33;;;25.00;96.60;;;;;;5055528;28;20086;-85
2021/07/09 02:47:12;;;;;;;25.10;20.25;;;25.10;96.60;;;;;;5022193;28;20082;-84
2021/07/09 02:49:38;;;;;;;23.65;20.20;;;25.10;96.60;;;;;;5055142;28;20029;-85
2021/07/09 02:52:04;;;;;;;23.25;19.88;;;25.00;96.60;;;;;;5072606;28;20108;-85
2021/07/09 02:54:30;;;;;;;23.08;18.98;;;25.00;96.60;;;;;;5038932;28;20526;-85
2021/07/09 02:56:55;;;;;;;22.42;19.17;;;25.10;96.60;;;;;;5054796;28;20044;-86
2021/07/09 02:59:21;;;;;;;21.48;18.83;;;25.10;96.60;;;;;;5055334;28;20033;-86
2021/07/09 03:01:47;;;;;;;20.17;17.85;;;25.10;96.60;;;;;;5073224;28;20146;-86
2021/07/09 03:04:13;;;;;;;22.52;18.98;;;25.00;96.60;;;;;;5038470;28;20035;-86
2021/07/09 03:06:39;;;;;;;28.08;19.17;;;25.10;96.60;;;;;;5055278;28;20036;-85
2021/07/09 03:09:09;;;;;;;21.42;18.45;;;25.00;96.60;;;;;;5072493;28;20122;-86
2021/07/09 03:11:37;;;;;;;20.92;17.85;;;25.10;96.60;;;;;;5073315;28;20111;-86
2021/07/09 03:14:04;;;;;;;21.15;18.25;;;25.00;96.60;;;;;;5054526;28;20025;-86
2021/07/09 03:16:30;;;;;;;22.00;18.75;;;25.00;96.60;;;;;;5055353;28;20039;-86
2021/07/09 03:18:55;;;;;;;21.73;18.45;;;25.00;96.60;;;;;;5038448;28;20385;-88
2021/07/09 03:21:21;;;;;;;19.75;17.65;;;25.00;96.60;;;;;;5073918;28;20033;-86
2021/07/09 03:23:47;;;;;;;20.95;17.88;;;25.00;96.60;;;;;;5073059;28;20025;-85
2021/07/09 03:26:12;;;;;;;21.88;18.52;;;25.00;96.60;;;;;;5072869;28;20075;-85
2021/07/09 03:28:38;;;;;;;21.15;17.27;;;25.00;96.60;;;;;;5055086;28;20039;-86
2021/07/09 03:31:05;;;;;;;22.02;17.90;;;25.00;96.60;;;;;;5072650;28;20028;-86
2021/07/09 03:33:30;;;;;;;19.83;17.27;;;25.00;96.60;;;;;;5072796;28;20074;-86
2021/07/09 03:35:56;;;;;;;18.70;16.70;;;25.00;96.60;;;;;;5072823;28;20462;-87
2021/07/09 03:38:22;;;;;;;18.88;16.25;;;25.00;96.50;;;;;;5054891;28;20429;-86
2021/07/09 03:40:48;;;;;;;19.75;16.95;;;25.00;96.50;;;;;;5054757;28;20484;-86
2021/07/09 03:43:13;;;;;;;18.58;16.05;;;25.00;96.60;;;;;;5055346;28;20055;-86
2021/07/09 03:45:39;;;;;;;18.83;16.65;;;25.00;96.60;;;;;;5055272;28;20377;-86
2021/07/09 03:48:05;;;;;;;17.27;15.45;;;25.00;96.60;;;;;;5054614;28;20382;-87
2021/07/09 03:50:32;;;;;;;19.50;15.68;;;25.00;96.60;;;;;;5038134;28;20040;-86
2021/07/09 03:52:57;;;;;;;19.20;15.90;;;25.00;96.60;;;;;;5054725;28;20033;-85
2021/07/09 03:55:23;;;;;;;16.77;14.98;;;25.00;96.60;;;;;;5054340;28;20032;-86
2021/07/09 03:57:49;;;;;;;18.15;15.35;;;25.00;96.60;;;;;;5038248;28;20055;-86
2021/07/09 04:00:16;;;;;;;17.50;15.48;;;25.00;96.60;;;;;;5072061;28;20377;-85
2021/07/09 04:02:42;;;;;;;18.67;15.40;;;25.00;96.60;;;;;;5038033;28;20063;-86
2021/07/09 04:05:09;;;;;;;17.65;15.75;;;25.00;96.60;;;;;;5074276;28;20033;-86
2021/07/09 04:07:35;;;;;;;17.80;15.63;;;25.00;96.60;;;;;;5076147;28;20041;-86
2021/07/09 04:10:02;;;;;;;16.52;14.23;;;25.00;96.60;;;;;;5075794;28;20045;-89
2021/07/09 04:12:27;;;;;;;17.88;14.85;;;25.00;96.60;;;;;;5076092;28;20471;-86
2021/07/09 04:14:53;;;;;;;15.55;13.80;;;25.00;96.60;;;;;;5025121;28;20029;-87
2021/07/09 04:17:18;;;;;;;17.27;14.90;;;25.00;96.60;;;;;;5058051;28;20482;-87
2021/07/09 04:19:44;;;;;;;16.05;14.20;;;25.00;96.60;;;;;;5058618;28;20052;-86
2021/07/09 04:22:10;;;;;;;16.80;14.20;;;25.00;96.60;;;;;;5041249;28;20028;-87
2021/07/09 04:24:35;;;;;;;15.75;13.80;;;25.00;96.60;;;;;;5058183;28;20028;-86
2021/07/09 04:27:01;;;;;;;14.80;13.20;;;25.00;96.60;;;;;;5058543;28;20049;-86
2021/07/09 04:29:27;;;;;;;16.50;14.73;;;25.00;96.60;;;;;;5025379;28;20052;-87
2021/07/09 04:31:53;;;;;;;15.55;13.23;;;25.00;96.60;;;;;;5057812;28;20078;-86
2021/07/09 04:34:18;;;;;;;15.93;14.05;;;25.00;96.50;;;;;;5057384;28;20486;-86
2021/07/09 04:36:44;;;;;;;14.88;13.10;;;25.00;96.50;;;;;;5076175;28;20506;-86
2021/07/09 04:39:09;;;;;;;14.65;12.50;;;25.00;96.50;;;;;;5082090;28;20095;-86
2021/07/09 04:41:35;;;;;;;15.93;13.57;;;25.00;96.50;;;;;;5063522;28;20028;-86
2021/07/09 04:44:01;;;;;;;14.02;12.40;;;25.00;96.50;;;;;;5041159;28;20467;-86
2021/07/09 04:46:26;;;;;;;15.35;13.13;;;25.00;96.50;;;;;;5075231;28;20040;-86
2021/07/09 04:48:52;;;;;;;14.20;12.63;;;25.00;96.50;;;;;;5075954;28;20024;-86
2021/07/09 04:51:17;;;;;;;15.50;12.65;;;25.00;96.50;;;;;;5060124;28;20036;-87
2021/07/09 04:53:43;;;;;;;14.35;12.85;;;25.00;96.80;;;;;;5077079;28;20032;-86
2021/07/09 04:56:09;;;;;;;13.98;12.18;;;25.00;96.60;;;;;;5077099;28;20028;-86
2021/07/09 04:58:34;;;;;;;14.65;12.77;;;25.00;96.60;;;;;;5060901;28;20473;-86
2021/07/09 05:01:00;;;;;;;14.77;12.55;;;25.00;96.60;;;;;;5077162;28;20078;-87
2021/07/09 05:03:26;;;;;;;14.75;12.45;;;25.00;96.60;;;;;;5060043;28;20032;-84
2021/07/09 05:05:52;;;;;;;15.35;12.50;;;25.00;96.60;;;;;;5060664;28;20526;-87
2021/07/09 05:08:18;;;;;;;14.43;12.20;;;25.00;96.60;;;;;;5094861;28;20030;-84
2021/07/09 05:10:43;;;;;;;13.88;12.15;;;25.00;96.60;;;;;;5077582;28;20431;-86
2021/07/09 05:13:10;;;;;;;13.07;11.70;;;25.00;96.60;;;;;;5095658;28;20480;-88
2021/07/09 05:15:37;;;;;;;13.75;11.70;;;25.00;96.60;;;;;;5076662;28;20478;-86
2021/07/09 05:18:03;;;;;;;12.88;11.43;;;25.00;96.50;;;;;;5077193;28;20497;-86
2021/07/09 05:20:28;;;;;;;11.60;10.30;;;25.00;96.60;;;;;;5076828;28;20040;-85
2021/07/09 05:22:54;;;;;;;13.40;11.32;;;25.00;96.50;;;;;;5076870;28;20032;-85
2021/07/09 05:25:19;;;;;;;10.73;9.40;;;25.00;96.50;;;;;;5076637;28;20036;-86
2021/07/09 05:27:45;;;;;;;10.27;9.18;;;25.00;96.50;;;;;;5060169;28;20085;-86
2021/07/09 05:30:13;;;;;;;11.13;9.45;;;25.00;96.50;;;;;;5077074;28;20024;-88
2021/07/09 05:32:42;;;;;;;11.52;8.93;;;25.00;96.50;;;;;;5068114;28;20044;-86
2021/07/09 05:35:09;;;;;;;9.25;8.25;;;25.00;96.50;;;;;;5075020;28;20029;-86
2021/07/09 05:37:34;;;;;;;9.55;7.70;;;25.00;96.40;;;;;;5074221;28;20509;-85
2021/07/09 05:40:00;;;;;;;8.77;7.43;;;25.00;96.50;;;;;;5074270;28;20032;-86
2021/07/09 05:42:26;;;;;;;8.00;7.07;;;25.00;96.40;;;;;;5056170;28;20052;-86
2021/07/09 05:44:52;;;;;;;7.63;6.82;;;25.00;96.50;;;;;;5085395;28;20032;-86
2021/07/09 05:47:17;;;;;;;7.63;6.82;;;25.00;96.50;;;;;;5076216;28;20121;-86
2021/07/09 05:49:43;;;;;;;6.32;5.72;;;25.00;96.50;;;;;;5076727;28;20043;-86
2021/07/09 05:52:10;;;;;;;6.72;6.00;;;25.00;96.50;;;;;;5059796;28;20032;-86
2021/07/09 05:54:36;;;;;;;6.72;5.97;;;25.00;96.40;;;;;;5060114;28;20466;-86
2021/07/09 05:57:03;;;;;;;5.50;5.00;;;25.00;96.50;;;;;;5094554;28;20035;-87
2021/07/09 05:59:28;;;;;;;6.07;5.47;;;25.00;96.50;;;;;;5075902;28;20074;-87
2021/07/09 06:01:54;;;;;;;5.05;4.55;;;25.00;96.40;;;;;;5059810;28;20028;-85
2021/07/09 06:04:20;;;;;;;4.90;4.50;;;25.00;96.40;;;;;;5094256;28;20073;-85
2021/07/09 06:06:46;;;;;;;5.15;4.28;;;25.00;96.40;;;;;;5094264;28;20036;-85
2021/07/09 06:09:12;;;;;;;4.88;4.38;;;25.00;96.40;;;;;;5094188;28;20124;-85
2021/07/09 06:11:38;;;;;;;4.43;4.00;;;25.00;96.40;;;;;;5094035;28;20158;-85
2021/07/09 06:14:05;;;;;;;4.55;3.78;;;25.00;96.40;;;;;;5094309;28;20059;-85
2021/07/09 06:16:31;;;;;;;3.70;3.40;;;25.00;96.40;;;;;;5093397;28;20123;-84
2021/07/09 06:18:57;;;;;;;4.00;3.60;;;25.00;96.40;;;;;;5075856;28;20036;-86
2021/07/09 06:21:23;;;;;;;3.90;3.50;;;25.00;96.40;;;;;;5076139;28;20075;-85
2021/07/09 06:23:50;;;;;;;3.35;2.95;;;25.00;96.40;;;;;;5076332;28;20489;-85
2021/07/09 06:26:16;;;;;;;2.92;2.65;;;25.00;96.40;;;;;;5093913;28;20036;-85
2021/07/09 06:28:41;;;;;;;3.45;3.15;;;25.00;96.40;;;;;;5074809;28;20066;-85
2021/07/09 06:31:07;;;;;;;3.25;2.95;;;25.00;96.40;;;;;;5077351;28;20028;-86
2021/07/09 06:33:33;;;;;;;2.95;2.65;;;25.00;96.40;;;;;;5075815;28;20493;-85
2021/07/09 06:35:58;;;;;;;3.00;2.70;;;25.10;96.40;;;;;;5059705;28;20059;-84
2021/07/09 06:38:24;;;;;;;2.67;2.47;;;25.10;96.40;;;;;;5094319;28;20093;-85
2021/07/09 06:40:50;;;;;;;2.42;2.22;;;25.00;96.40;;;;;;5094653;28;20505;-85
2021/07/09 06:43:16;;;;;;;3.42;2.58;;;25.00;96.40;;;;;;5096674;28;20446;-88
2021/07/09 06:45:41;;;;;;;2.08;1.95;;;25.10;96.40;;;;;;5095794;28;20451;-86
2021/07/09 06:48:08;;;;;;;2.28;2.08;;;25.00;96.40;;;;;;5075623;28;20386;-89
2021/07/09 06:50:37;;;;;;;2.72;2.38;;;25.00;96.50;;;;;;5092081;28;20028;-88
2021/07/09 06:53:04;;;;;;;2.38;2.15;;;25.00;96.50;;;;;;5076138;28;20024;-85
2021/07/09 06:55:30;;;;;;;2.60;2.40;;;25.00;96.50;;;;;;5059565;28;20024;-87
2021/07/09 06:57:55;;;;;;;2.53;2.33;;;25.00;96.50;;;;;;5076239;28;20526;-86
2021/07/09 07:00:21;;;;;;;2.08;1.88;;;25.00;96.50;;;;;;5094688;28;20024;-88
2021/07/09 07:02:48;;;;;;;2.25;2.00;;;25.00;96.50;;;;;;5094123;28;20142;-88
2021/07/09 07:05:15;;;;;;;2.22;2.03;;;25.00;96.60;;;;;;5094032;28;20032;-87
2021/07/09 07:07:41;;;;;;;2.40;2.20;;;25.00;96.60;;;;;;5059107;28;20500;-86
2021/07/09 07:10:08;;;;;;;2.20;2.00;;;25.00;96.60;;;;;;5075178;28;20052;-86
2021/07/09 07:12:34;;;;;;;2.45;2.25;;;25.00;96.60;;;;;;5074905;28;20032;-85
2021/07/09 07:15:00;;;;;;;1.80;1.70;;;25.00;96.60;;;;;;5093700;28;20039;-85
2021/07/09 07:17:25;;;;;;;1.92;1.83;;;25.00;96.60;;;;;;5075117;28;20482;-87
2021/07/09 07:19:51;;;;;;;2.17;1.98;;;25.00;96.70;;;;;;5075074;28;20035;-85
2021/07/09 07:22:17;;;;;;;1.95;1.85;;;25.00;96.70;;;;;;5093645;28;20382;-86
2021/07/09 07:24:42;;;;;;;2.15;1.95;;;25.00;96.70;;;;;;5092903;28;20032;-84
2021/07/09 07:27:08;;;;;;;1.70;1.60;;;25.00;96.70;;;;;;5075484;28;20432;-84
2021/07/09 07:29:34;;;;;;;2.20;2.00;;;25.00;96.70;;;;;;5092819;28;20024;-84
2021/07/09 07:32:00;;;;;;;1.77;1.67;;;25.00;96.70;;;;;;5075419;28;20025;-87
2021/07/09 07:34:25;;;;;;;1.70;1.60;;;25.00;96.70;;;;;;5075090;28;20029;-85
2021/07/09 07:36:51;;;;;;;2.05;1.88;;;25.00;96.70;;;;;;5074987;28;20036;-85
2021/07/09 07:39:16;;;;;;;2.20;2.00;;;25.00;96.70;;;;;;5077412;28;20032;-85
2021/07/09 07:41:42;;;;;;;2.47;2.28;;;25.00;97.00;;;;;;5062334;28;20056;-85
2021/07/09 07:44:08;;;;;;;1.88;1.77;;;25.00;96.80;;;;;;5079808;28;20028;-85
2021/07/09 07:46:34;;;;;;;2.20;2.00;;;24.90;96.80;;;;;;5078951;28;20043;-85
2021/07/09 07:49:00;;;;;;;2.03;1.83;;;25.00;96.80;;;;;;5097295;28;20028;-85
2021/07/09 07:51:26;;;;;;;2.10;1.85;;;25.00;96.80;;;;;;5097822;28;20132;-86
2021/07/09 07:53:52;;;;;;;2.20;1.90;;;25.00;96.80;;;;;;5062479;28;20460;-86
2021/07/09 07:56:19;;;;;;;2.15;1.95;;;25.00;96.80;;;;;;5062381;28;20036;-85
2021/07/09 07:58:45;;;;;;;1.77;1.67;;;25.00;96.80;;;;;;5096884;28;20020;-84
2021/07/09 08:01:11;;;;;;;2.05;1.83;;;25.00;96.80;;;;;;5062524;28;20035;-86
2021/07/09 08:03:37;;;;;;;1.80;1.70;;;25.00;96.80;;;;;;5096299;28;20458;-85
2021/07/09 08:06:04;;;;;;;1.73;1.63;;;25.00;97.00;;;;;;5096580;28;20092;-84
2021/07/09 08:08:31;;;;;;;1.60;1.50;;;25.00;96.80;;;;;;5078423;28;20094;-84
2021/07/09 08:10:57;;;;;;;1.80;1.70;;;25.00;96.80;;;;;;5078267;28;20024;-84
2021/07/09 08:13:23;;;;;;;2.22;2.03;;;25.00;96.80;;;;;;5078441;28;20082;-84
2021/07/09 08:15:49;;;;;;;1.88;1.70;;;25.00;96.80;;;;;;5078113;28;20028;-84
2021/07/09 08:18:15;;;;;;;2.15;1.95;;;25.00;96.80;;;;;;5078194;28;20032;-84
2021/07/09 08:20:40;;;;;;;1.77;1.67;;;25.00;96.80;;;;;;5078049;28;20520;-84
2021/07/09 08:23:07;;;;;;;1.48;1.38;;;25.00;96.80;;;;;;5096108;28;20020;-84
2021/07/09 08:25:32;;;;;;;1.70;1.60;;;25.00;96.70;;;;;;5061532;28;20024;-84
2021/07/09 08:27:58;;;;;;;1.85;1.75;;;25.00;96.70;;;;;;5096065;28;20461;-85
2021/07/09 08:30:24;;;;;;;1.80;1.70;;;25.00;96.70;;;;;;5077938;28;20032;-84
2021/07/09 08:32:50;;;;;;;1.83;1.70;;;25.10;96.70;;;;;;5044567;28;20035;-84
2021/07/09 08:35:15;;;;;;;1.60;1.50;;;25.00;96.70;;;;;;5096885;28;20470;-85
2021/07/09 08:37:42;;;;;;;2.03;1.83;;;25.10;96.80;;;;;;5077541;28;20111;-85
2021/07/09 08:40:08;;;;;;;1.90;1.80;;;25.00;96.80;;;;;;5061760;28;20048;-85
2021/07/09 08:42:35;;;;;;;1.60;1.50;;;25.10;97.10;;;;;;5061490;28;20032;-84
2021/07/09 08:45:01;;;;;;;1.98;1.75;;;25.10;96.80;;;;;;5077701;28;20053;-85
2021/07/09 08:47:29;;;;;;;1.75;1.52;;;25.10;96.80;;;;;;5077761;28;20040;-85
2021/07/09 08:49:55;;;;;;;1.80;1.70;;;25.10;96.80;;;;;;5077084;28;20402;-87
2021/07/09 08:52:21;;;;;;;1.75;1.65;;;25.10;96.80;;;;;;5078179;28;20115;-87
2021/07/09 08:54:47;;;;;;;2.38;2.17;;;25.10;96.80;;;;;;5079662;28;20442;-87
2021/07/09 08:57:16;;;;;;;2.58;1.90;;;25.10;96.70;;;;;;5065951;28;20135;-87
2021/07/09 08:59:41;;;;;;;1.98;1.88;;;25.10;96.70;;;;;;5098586;28;20024;-86
2021/07/09 09:02:07;;;;;;;2.28;2.08;;;25.10;96.70;;;;;;5077898;28;20077;-87
2021/07/09 09:04:35;;;;;;;2.17;1.98;;;25.20;96.70;;;;;;5097841;28;20024;-88
2021/07/09 09:07:00;;;;;;;1.98;1.77;;;25.20;96.60;;;;;;5095988;28;20127;-85
2021/07/09 09:09:26;;;;;;;2.13;1.92;;;25.20;96.70;;;;;;5078493;28;20117;-90
2021/07/09 09:12:00;;;;;;;1.90;1.80;;;25.20;96.60;;;;;;5078834;28;20027;-86
2021/07/09 09:14:25;;;;;;;1.95;1.70;;;25.20;96.60;;;;;;5061827;28;20039;-86
2021/07/09 09:16:51;;;;;;;1.70;1.60;;;25.10;96.60;;;;;;5095977;28;20036;-87
2021/07/09 09:19:21;;;;;;;2.15;1.95;;;25.20;96.60;;;;;;5061265;28;20028;-86
2021/07/09 09:21:47;;;;;;;1.67;1.55;;;25.20;96.60;;;;;;5061077;28;20035;-86
2021/07/09 09:24:27;;;;;;;2.17;1.90;;;25.20;96.60;;;;;;5096064;28;20060;-86
2021/07/09 09:26:53;;;;;;;1.88;1.75;;;25.20;96.60;;;;;;5095452;28;20032;-87
2021/07/09 09:29:25;;;;;;;1.73;1.63;;;25.20;96.60;;;;;;5078792;28;20069;-87
2021/07/09 09:31:54;;;;;;;1.70;1.60;;;25.20;96.60;;;;;;5096512;28;20024;-88
2021/07/09 09:34:37;;;;;;;2.60;1.77;;;25.20;96.60;;;;;;5078061;28;20541;-87
2021/07/09 09:37:07;;;;;;;1.90;1.80;;;25.20;96.60;;;;;;5095275;28;20433;-87
2021/07/09 09:39:33;;;;;;;1.90;1.80;;;25.20;96.60;;;;;;5094819;28;20081;-86
2021/07/09 09:42:19;;;;;;;1.77;1.65;;;25.20;96.60;;;;;;5094829;28;20103;-85
2021/07/09 09:44:59;;;;;;;2.13;1.92;;;25.20;96.60;;;;;;5095008;28;20146;-88
2021/07/09 09:47:31;;;;;;;2.22;1.85;;;25.20;96.70;;;;;;5095065;28;20024;-85
2021/07/09 09:49:59;;;;;;;2.10;1.58;;;25.20;96.70;;;;;;5092973;28;20123;-86
2021/07/09 09:52:38;;;;;;;2.05;1.85;;;25.20;96.70;;;;;;5094826;28;20038;-85
2021/07/09 09:55:19;;;;;;;2.17;1.98;;;25.20;96.70;;;;;;5076744;28;20555;-85
2021/07/09 09:57:46;;;;;;;2.10;1.95;;;25.20;96.70;;;;;;5095222;28;20032;-85
2021/07/09 10:00:20;;;;;;;2.33;2.13;;;25.20;96.70;;;;;;5094336;28;20024;-86
2021/07/09 10:02:48;;;;;;;;;;;25.20;96.80;;;;;;5078103;28;20035;-86
2021/07/09 10:05:13;;;;;;;2.28;2.08;;;25.20;96.70;;;;;;5078328;28;19912;-85
2021/07/09 10:07:39;;;;;;;2.30;2.10;;;25.20;96.80;;;;;;5060348;28;20473;-86
2021/07/09 10:10:05;;;;;;;2.33;2.13;;;25.20;96.80;;;;;;5077157;28;20048;-85
2021/07/09 10:12:32;;;;;;;2.40;2.20;;;25.20;96.70;;;;;;5076852;28;20024;-85
2021/07/09 10:14:59;;;;;;;2.40;2.20;;;25.30;96.80;;;;;;5095094;28;20093;-85
2021/07/09 10:17:29;;;;;;;2.30;2.10;;;25.20;96.80;;;;;;5060017;28;20040;-84
2021/07/09 10:19:55;;;;;;;2.05;1.95;;;25.20;96.80;;;;;;5094368;28;20114;-85
2021/07/09 10:22:21;;;;;;;2.58;2.38;;;25.20;96.80;;;;;;5076896;28;20028;-85
2021/07/09 10:24:52;;;;;;;2.58;2.05;;;25.30;96.90;;;;;;5076598;28;20469;-86
2021/07/09 10:27:23;;;;;;;2.30;2.10;;;25.30;96.90;;;;;;5077411;28;20036;-86
2021/07/09 10:29:50;;;;;;;2.35;2.08;;;25.30;96.90;;;;;;5077277;28;20454;-85
2021/07/09 10:32:36;;;;;;;2.55;2.13;;;25.30;96.80;;;;;;5097987;28;20053;-85
2021/07/09 10:35:04;;;;;;;2.78;2.20;;;25.30;96.80;;;;;;5094762;28;20047;-85
2021/07/09 10:37:30;;;;;;;1.83;1.73;;;25.30;96.80;;;;;;5076139;28;20024;-86
2021/07/09 10:40:07;;;;;;;2.58;2.00;;;25.30;96.80;;;;;;5077465;28;20042;-86
2021/07/09 10:42:40;;;;;;;2.45;2.22;;;25.30;96.90;;;;;;5071057;28;20089;-85
2021/07/09 10:45:18;;;;;;;2.45;2.25;;;25.30;96.90;;;;;;5075588;28;20032;-86
2021/07/09 10:47:51;;;;;;;1.98;1.88;;;25.30;96.90;;;;;;5093607;28;20093;-86
2021/07/09 10:50:37;;;;;;;2.47;2.28;;;25.30;96.90;;;;;;5093462;28;20042;-84
2021/07/09 10:53:11;;;;;;;2.20;2.00;;;25.30;96.90;;;;;;5093869;28;20036;-88
2021/07/09 10:55:50;;;;;;;2.40;2.20;;;25.30;97.00;;;;;;5093899;28;20027;-84
2021/07/09 10:58:22;;;;;;;2.63;2.30;;;25.30;97.00;;;;;;5093399;28;20024;-85
2021/07/09 11:00:51;;;;;;;2.50;2.30;;;25.30;96.90;;;;;;5075596;28;20047;-84
2021/07/09 11:03:41;;;;;;;2.40;2.05;;;25.30;96.90;;;;;;5093236;28;20028;-84
2021/07/09 11:06:11;;;;;;;2.30;2.10;;;25.30;96.90;;;;;;5093354;28;20055;-86
2021/07/09 11:08:40;;;;;;;2.35;2.15;;;25.30;96.90;;;;;;5075347;28;20055;-87
2021/07/09 11:11:16;;;;;;;2.30;2.10;;;25.30;96.90;;;;;;5075833;28;20054;-86
2021/07/09 11:13:42;;;;;;;2.30;2.10;;;25.30;96.90;;;;;;5059095;28;20544;-87
2021/07/09 11:16:38;;;;;;;2.42;2.22;;;25.30;96.90;;;;;;5094415;28;20078;-85
2021/07/09 11:19:33;;;;;;;2.90;2.40;;;25.30;96.90;;;;;;5093695;28;20032;-85
2021/07/09 11:22:09;;;;;;;3.08;2.60;;;25.30;96.90;;;;;;5072878;28;20044;-87
2021/07/09 11:24:45;;;;;;;3.53;2.90;;;25.30;96.90;;;;;;5093584;28;20024;-85
2021/07/09 11:27:11;;;;;;;2.65;2.42;;;25.40;97.00;;;;;;5092885;28;20089;-85
2021/07/09 11:29:42;;;;;;;2.67;2.47;;;25.40;96.90;;;;;;5075476;28;20103;-84
2021/07/09 11:32:10;;;;;;;2.97;2.67;;;25.40;96.80;;;;;;5092939;28;20039;-85
2021/07/09 11:34:40;;;;;;;2.85;2.55;;;25.40;96.80;;;;;;5075460;28;20073;-85
2021/07/09 11:37:08;;;;;;;2.88;2.60;;;25.40;96.70;;;;;;5093218;28;20028;-86
2021/07/09 11:39:49;;;;;;;2.53;2.33;;;25.40;96.70;;;;;;5074829;28;20113;-86
2021/07/09 11:42:14;;;;;;;2.80;2.33;;;25.40;96.70;;;;;;5074085;28;20032;-86
2021/07/09 11:44:45;;;;;;;3.00;2.70;;;25.40;96.70;;;;;;5074731;28;20035;-85
2021/07/09 11:47:15;;;;;;;2.30;2.10;;;25.40;96.60;;;;;;5074846;28;20028;-86
2021/07/09 11:49:55;;;;;;;2.90;2.60;;;25.40;96.60;;;;;;5075057;28;20020;-85
2021/07/09 11:52:24;;;;;;;2.08;1.75;;;25.40;96.60;;;;;;5075193;28;20024;-90
2021/07/09 11:54:52;;;;;;;2.33;2.13;;;25.40;96.60;;;;;;5093178;28;20032;-88
2021/07/09 11:57:20;;;;;;;1.80;1.70;;;25.40;96.60;;;;;;5075199;28;20035;-86
2021/07/09 11:59:47;;;;;;;1.92;1.83;;;25.40;96.60;;;;;;5093612;28;20020;-86
2021/07/09 12:02:20;;;;;;;2.30;2.10;;;25.40;96.60;;;;;;5075129;28;20024;-87
2021/07/09 12:04:49;;;;;;;2.22;2.05;;;25.40;96.60;;;;;;5077363;28;20025;-85
2021/07/09 12:07:42;;;;;;;2.05;1.95;;;25.30;96.50;;;;;;5096724;28;20024;-88
2021/07/09 12:10:12;;;;;;;2.33;2.13;;;25.40;96.50;;;;;;5071864;28;20044;-87
2021/07/09 12:12:42;;;;;;;2.22;2.03;;;25.30;96.50;;;;;;5077894;28;20020;-89
2021/07/09 12:15:24;;;;;;;1.63;1.52;;;25.30;96.50;;;;;;5076841;28;20115;-88
2021/07/09 12:18:01;;;;;;;1.90;1.80;;;25.30;96.60;;;;;;5099872;28;20090;-88
2021/07/09 12:20:39;;;;;;;1.75;1.65;;;25.30;96.60;;;;;;5081600;28;20054;-88
2021/07/09 12:23:10;;;;;;;1.90;1.80;;;25.30;96.60;;;;;;5078425;28;20055;-86
2021/07/09 12:25:41;;;;;;;1.83;1.67;;;25.30;96.60;;;;;;5077938;28;20028;-88
2021/07/09 12:28:09;;;;;;;1.70;1.60;;;25.30;96.60;;;;;;5081553;28;20061;-88
2021/07/09 12:30:53;;;;;;;1.73;1.63;;;25.30;96.60;;;;;;5079861;28;20130;-87
2021/07/09 12:33:25;;;;;;;2.05;1.88;;;25.30;96.50;;;;;;5080714;28;20081;-87
2021/07/09 12:36:01;;;;;;;2.08;1.90;;;25.30;96.50;;;;;;5080768;28;20536;-86
2021/07/09 12:38:27;;;;;;;1.95;1.80;;;25.30;96.50;;;;;;5081561;28;20028;-86
2021/07/09 12:40:54;;;;;;;1.77;1.67;;;25.30;96.50;;;;;;5098960;28;20039;-87